Time;durP1;ratioP1;P1;durP2;ratioP2;P2;SDS_P1;SDS_P2;PMS_P1;PMS_P2;Temp;Humidity;BMP_temperature;BMP_pressure;BME280_temperature;BME280_humidity;BME280_pressure;Samples;Min_cycle;Max_cycle;Signal;HPM_P1;HPM_P2
2021/03/01 00:00:20;;;;;;;45.90;26.77;;;;;;;3.84;nan;100530.06;2073022;28;20306;-75
2021/03/01 00:01:25;;;;;;;45.20;29.33;;;;;;;3.72;nan;100515.91;2080652;28;20227;-75
2021/03/01 00:02:27;;;;;;;44.35;29.50;;;;;;;3.72;nan;100515.91;2080765;28;20276;-75
2021/03/01 00:03:31;;;;;;;40.03;25.35;;;;;;;3.78;nan;100525.63;2080487;28;20302;-75
2021/03/01 00:04:36;;;;;;;45.05;27.38;;;;;;;3.73;nan;100522.00;2080637;28;20720;-75
2021/03/01 00:05:40;;;;;;;34.45;23.95;;;;;;;3.69;nan;100516.38;2080111;28;20223;-74
2021/03/01 00:06:46;;;;;;;49.22;30.40;;;;;;;3.63;nan;100511.94;2079862;28;20231;-74
2021/03/01 00:07:48;;;;;;;39.15;26.98;;;;;;;3.62;nan;100505.03;2080453;28;20243;-74
2021/03/01 00:08:53;;;;;;;45.13;27.23;;;;;;;3.58;nan;100503.88;2081579;28;20270;-74
2021/03/01 00:09:59;;;;;;;46.83;29.52;;;;;;;3.55;nan;100501.63;2080671;28;20223;-74
2021/03/01 00:11:01;;;;;;;41.13;27.95;;;;;;;3.53;nan;100511.59;2081345;28;20616;-75
2021/03/01 00:12:05;;;;;;;41.72;27.63;;;;;;;3.43;nan;100495.44;2080195;28;20305;-74
2021/03/01 00:13:07;;;;;;;44.78;27.15;;;;;;;3.54;nan;100513.22;2080363;28;20223;-74
2021/03/01 00:14:12;;;;;;;48.22;30.38;;;;;;;3.58;nan;100515.22;2080073;28;20265;-74
2021/03/01 00:15:16;;;;;;;42.67;27.80;;;;;;;3.59;nan;100522.13;2072393;28;20227;-74
2021/03/01 00:16:19;;;;;;;44.47;29.00;;;;;;;3.54;nan;100510.56;2072471;28;20663;-75
2021/03/01 00:17:25;;;;;;;43.10;27.98;;;;;;;3.42;nan;100513.09;2080170;28;20298;-75
2021/03/01 00:18:28;;;;;;;45.58;30.27;;;;;;;3.40;nan;100515.97;2080625;28;20590;-74
2021/03/01 00:19:32;;;;;;;46.30;29.77;;;;;;;3.45;nan;100527.69;2081196;28;20583;-74
2021/03/01 00:20:37;;;;;;;44.17;27.92;;;;;;;3.43;nan;100535.81;2080807;28;20238;-75
2021/03/01 00:21:43;;;;;;;43.47;29.00;;;;;;;3.42;nan;100549.22;2078977;28;20224;-75
2021/03/01 00:22:46;;;;;;;41.78;25.80;;;;;;;3.53;nan;100549.34;2081030;28;20281;-75
2021/03/01 00:23:50;;;;;;;43.95;27.85;;;;;;;3.46;nan;100553.03;2081041;28;20678;-76
2021/03/01 00:24:54;;;;;;;43.67;28.38;;;;;;;3.40;nan;100550.25;2080223;28;20252;-76
2021/03/01 00:26:00;;;;;;;43.53;28.65;;;;;;;3.36;nan;100548.25;2079907;28;20310;-76
2021/03/01 00:27:04;;;;;;;44.78;25.45;;;;;;;3.42;nan;100551.88;2080100;28;20309;-76
2021/03/01 00:28:07;;;;;;;44.40;29.13;;;;;;;3.48;nan;100548.38;2080430;28;20220;-74
2021/03/01 00:29:10;;;;;;;43.83;29.42;;;;;;;3.42;nan;100549.22;2079858;28;20780;-75
2021/03/01 00:30:14;;;;;;;43.40;29.20;;;;;;;3.48;nan;100551.84;2080362;28;20666;-75
2021/03/01 00:31:17;;;;;;;45.65;28.30;;;;;;;3.42;nan;100543.97;2080916;28;20239;-74
2021/03/01 00:32:20;;;;;;;47.15;27.95;;;;;;;3.35;nan;100546.63;2081206;28;20227;-74
2021/03/01 00:33:25;;;;;;;44.08;28.02;;;;;;;3.45;nan;100548.78;2080305;28;20238;-73
2021/03/01 00:34:29;;;;;;;47.42;28.23;;;;;;;3.44;nan;100547.19;2080758;28;20230;-75
2021/03/01 00:35:31;;;;;;;49.88;29.67;;;;;;;3.39;nan;100535.44;2081140;28;20218;-76
2021/03/01 00:36:36;;;;;;;50.25;29.88;;;;;;;3.43;nan;100548.22;2080804;28;20698;-75
2021/03/01 00:37:42;;;;;;;47.25;28.48;;;;;;;3.39;nan;100553.91;2076611;28;20780;-73
2021/03/01 00:38:46;;;;;;;48.03;30.67;;;;;;;3.33;nan;100554.75;2080861;28;20310;-74
2021/03/01 00:39:49;;;;;;;45.47;29.60;;;;;;;3.38;nan;100565.47;2080671;28;20600;-74
2021/03/01 00:40:55;;;;;;;39.45;26.27;;;;;;;3.32;nan;100578.72;2080404;28;20219;-75
2021/03/01 00:41:59;;;;;;;42.72;27.52;;;;;;;3.33;nan;100569.78;2079799;28;20224;-74
2021/03/01 00:43:03;;;;;;;46.53;29.58;;;;;;;3.33;nan;100564.50;2080041;28;20219;-75
2021/03/01 00:44:06;;;;;;;47.63;29.27;;;;;;;3.34;nan;100558.19;2080179;28;20231;-75
2021/03/01 00:45:10;;;;;;;47.50;30.08;;;;;;;3.32;nan;100562.88;2079730;28;20578;-74
2021/03/01 00:46:13;;;;;;;46.42;29.42;;;;;;;3.32;nan;100561.06;2080078;28;20233;-75
2021/03/01 00:47:17;;;;;;;42.38;28.02;;;;;;;3.23;nan;100553.59;2080857;28;20730;-75
2021/03/01 00:48:20;;;;;;;44.33;26.70;;;;;;;3.30;nan;100559.63;2080848;28;20247;-75
2021/03/01 00:49:25;;;;;;;43.92;28.25;;;;;;;3.23;nan;100549.13;2079935;28;20306;-75
2021/03/01 00:50:26;;;;;;;46.95;29.25;;;;;;;3.19;nan;100560.31;2072274;28;20228;-75
2021/03/01 00:51:29;;;;;;;44.92;28.95;;;;;;;3.19;nan;100555.84;2080006;28;20231;-75
2021/03/01 00:52:30;;;;;;;49.85;27.73;;;;;;;3.26;nan;100559.25;2079896;28;20245;-75
2021/03/01 00:53:36;;;;;;;44.55;28.17;;;;;;;3.24;nan;100557.84;2080346;28;20219;-75
2021/03/01 00:54:39;;;;;;;44.90;29.60;;;;;;;3.11;nan;100561.34;2088368;28;20685;-75
2021/03/01 00:55:46;;;;;;;43.33;26.42;;;;;;;3.23;nan;100569.44;2087784;28;20219;-75
2021/03/01 00:56:50;;;;;;;38.78;27.50;;;;;;;3.17;nan;100571.06;2072480;28;20232;-75
2021/03/01 00:57:55;;;;;;;44.28;28.08;;;;;;;3.20;nan;100567.19;2079673;28;20235;-74
2021/03/01 00:58:58;;;;;;;42.92;29.02;;;;;;;3.08;nan;100561.78;2080782;28;20305;-74
2021/03/01 01:00:00;;;;;;;41.92;27.30;;;;;;;3.07;nan;100562.78;2080176;28;20220;-75
2021/03/01 01:01:05;;;;;;;44.83;25.77;;;;;;;3.12;nan;100555.06;2080060;28;20231;-75
2021/03/01 01:02:10;;;;;;;39.38;26.35;;;;;;;3.12;nan;100562.97;2079827;28;20227;-75
2021/03/01 01:03:22;;;;;;;40.28;27.50;;;;;;;3.11;nan;100566.63;2079612;28;20227;-75
2021/03/01 01:04:40;;;;;;;38.47;25.80;;;;;;;3.17;nan;100563.16;2090168;28;20244;-75
2021/03/01 01:05:45;;;;;;;40.53;26.50;;;;;;;3.14;nan;100560.94;2087805;28;20237;-75
2021/03/01 01:06:48;;;;;;;47.75;29.75;;;;;;;3.16;nan;100563.38;2072304;28;20274;-76
2021/03/01 01:07:50;;;;;;;40.55;27.50;;;;;;;3.12;nan;100552.41;2079974;28;20226;-76
2021/03/01 01:08:55;;;;;;;40.15;28.65;;;;;;;3.13;nan;100559.34;2080792;28;20227;-76
2021/03/01 01:09:59;;;;;;;38.85;27.02;;;;;;;3.12;nan;100553.22;2080104;28;20231;-76
2021/03/01 01:11:04;;;;;;;42.80;27.92;;;;;;;3.12;nan;100560.31;2096423;28;20246;-76
2021/03/01 01:12:07;;;;;;;42.67;27.70;;;;;;;3.07;nan;100555.69;2095565;28;20696;-75
2021/03/01 01:13:11;;;;;;;41.33;26.73;;;;;;;3.06;nan;100553.28;2079448;28;20227;-75
2021/03/01 01:14:14;;;;;;;40.72;26.00;;;;;;;3.01;nan;100555.72;2080076;28;20674;-76
2021/03/01 01:15:18;;;;;;;39.03;25.83;;;;;;;3.04;nan;100571.94;2080571;28;20242;-75
2021/03/01 01:16:22;;;;;;;42.92;26.95;;;;;;;2.98;nan;100558.78;2080595;28;20638;-74
2021/03/01 01:17:25;;;;;;;41.80;27.05;;;;;;;2.94;nan;100557.56;2080220;28;20256;-74
2021/03/01 01:18:28;;;;;;;41.00;26.80;;;;;;;2.95;nan;100561.81;2079779;28;20306;-74
2021/03/01 01:19:30;;;;;;;42.58;28.30;;;;;;;3.04;nan;100560.56;2080105;28;20270;-74
2021/03/01 01:20:33;;;;;;;46.90;26.65;;;;;;;3.01;nan;100559.16;2080563;28;20242;-74
2021/03/01 01:21:39;;;;;;;41.45;26.30;;;;;;;3.00;nan;100569.91;2079683;28;20222;-74
2021/03/01 01:22:43;;;;;;;36.95;26.15;;;;;;;3.04;nan;100571.09;2079581;28;20227;-75
2021/03/01 01:23:46;;;;;;;45.08;28.10;;;;;;;2.98;nan;100570.13;2096299;28;20313;-75
2021/03/01 01:24:50;;;;;;;45.13;27.33;;;;;;;3.02;nan;100578.41;2096089;28;20264;-74
2021/03/01 01:25:55;;;;;;;45.28;27.85;;;;;;;3.01;nan;100571.53;2080594;28;20251;-74
2021/03/01 01:27:00;;;;;;;43.38;26.77;;;;;;;3.06;nan;100577.00;2079709;28;20265;-75
2021/03/01 01:28:04;;;;;;;39.95;25.90;;;;;;;3.06;nan;100575.16;2072392;28;20687;-75
2021/03/01 01:29:06;;;;;;;42.97;26.35;;;;;;;3.03;nan;100574.75;2071882;28;20625;-75
2021/03/01 01:30:12;;;;;;;41.88;27.13;;;;;;;3.04;nan;100573.75;2079495;28;20223;-76
2021/03/01 01:31:14;;;;;;;38.85;27.10;;;;;;;3.07;nan;100587.34;2079343;28;20701;-75
2021/03/01 01:32:18;;;;;;;40.67;26.63;;;;;;;3.06;nan;100590.19;2079792;28;20671;-75
2021/03/01 01:33:23;;;;;;;42.58;26.85;;;;;;;3.00;nan;100580.47;2080507;28;20254;-74
2021/03/01 01:34:28;;;;;;;40.22;25.63;;;;;;;3.06;nan;100598.91;2080246;28;20305;-75
2021/03/01 01:35:30;;;;;;;42.75;28.13;;;;;;;2.97;nan;100592.25;2080187;28;20242;-75
2021/03/01 01:36:33;;;;;;;44.60;26.92;;;;;;;2.95;nan;100585.53;2079749;28;20219;-75
2021/03/01 01:37:39;;;;;;;42.00;27.20;;;;;;;3.03;nan;100590.59;2079819;28;20274;-75
2021/03/01 01:38:45;;;;;;;41.83;27.20;;;;;;;2.98;nan;100587.78;2077439;28;20230;-75
2021/03/01 01:39:47;;;;;;;41.10;26.33;;;;;;;3.05;nan;100591.22;2080399;28;20309;-75
2021/03/01 01:40:53;;;;;;;39.83;26.25;;;;;;;3.01;nan;100588.16;2080626;28;20219;-75
2021/03/01 01:41:59;;;;;;;40.15;25.92;;;;;;;3.10;nan;100591.38;2079133;28;20223;-74
2021/03/01 01:43:01;;;;;;;42.55;27.17;;;;;;;2.96;nan;100580.09;2079825;28;20230;-75
2021/03/01 01:44:04;;;;;;;44.17;26.67;;;;;;;2.98;nan;100585.94;2079845;28;20230;-75
2021/03/01 01:45:10;;;;;;;47.50;29.55;;;;;;;2.97;nan;100592.25;2079674;28;20230;-75
2021/03/01 01:46:13;;;;;;;40.95;27.67;;;;;;;2.97;nan;100588.81;2079726;28;20655;-75
2021/03/01 01:47:17;;;;;;;45.85;28.92;;;;;;;3.02;nan;100588.97;2072211;28;20240;-74
2021/03/01 01:48:23;;;;;;;47.42;29.25;;;;;;;2.98;nan;100585.94;2079801;28;20231;-75
2021/03/01 01:49:25;;;;;;;45.00;27.70;;;;;;;3.01;nan;100595.25;2079424;28;20314;-75
2021/03/01 01:50:30;;;;;;;49.85;28.73;;;;;;;2.98;nan;100593.06;2079662;28;20266;-75
2021/03/01 01:51:33;;;;;;;43.55;26.92;;;;;;;3.02;nan;100589.78;2080440;28;20230;-75
2021/03/01 01:52:40;;;;;;;39.67;27.50;;;;;;;3.05;nan;100593.84;2080269;28;20257;-75
2021/03/01 01:53:44;;;;;;;45.08;28.63;;;;;;;3.00;nan;100602.38;2080088;28;20246;-74
2021/03/01 01:54:48;;;;;;;42.25;28.02;;;;;;;3.06;nan;100600.72;2080306;28;20321;-76
2021/03/01 01:55:53;;;;;;;45.83;30.13;;;;;;;3.03;nan;100598.50;2080388;28;20621;-75
2021/03/01 01:57:02;;;;;;;45.63;27.50;;;;;;;3.05;nan;100599.94;2080068;28;20223;-74
2021/03/01 01:58:04;;;;;;;44.22;29.23;;;;;;;3.01;nan;100600.53;2095895;28;20700;-75
2021/03/01 01:59:08;;;;;;;46.85;29.88;;;;;;;2.96;nan;100605.63;2095660;28;20218;-75
2021/03/01 02:00:22;;;;;;;42.30;28.55;;;;;;;2.79;nan;100568.38;2079924;28;20227;-76
2021/03/01 02:01:25;;;;;;;41.28;26.75;;;;;;;3.01;nan;100600.53;2072068;28;20697;-74
2021/03/01 02:02:28;;;;;;;44.08;29.05;;;;;;;3.02;nan;100595.03;2072050;28;20266;-75
2021/03/01 02:03:43;;;;;;;43.72;29.35;;;;;;;2.95;nan;100596.88;2072203;28;20232;-76
2021/03/01 02:04:48;;;;;;;43.60;28.73;;;;;;;2.92;nan;100599.94;2071826;28;20310;-74
2021/03/01 02:05:54;;;;;;;42.03;27.90;;;;;;;2.83;nan;100590.66;2071656;28;20279;-74
2021/03/01 02:07:01;;;;;;;45.25;28.05;;;;;;;2.82;nan;100600.38;2071352;28;20227;-74
2021/03/01 02:08:08;;;;;;;45.53;27.58;;;;;;;2.85;nan;100593.88;2072143;28;20628;-76
2021/03/01 02:09:19;;;;;;;44.65;28.05;;;;;;;2.89;nan;100594.31;2071660;28;20281;-73
2021/03/01 02:10:28;;;;;;;46.38;28.13;;;;;;;2.82;nan;100584.56;2071165;28;20286;-75
2021/03/01 02:11:40;;;;;;;43.78;29.15;;;;;;;2.87;nan;100591.03;2077042;28;20235;-76
2021/03/01 02:12:50;;;;;;;40.70;27.90;;;;;;;2.82;nan;100591.69;2079349;28;20223;-75
2021/03/01 02:13:59;;;;;;;47.80;28.67;;;;;;;2.81;nan;100598.78;2080311;28;20582;-74
2021/03/01 02:15:06;;;;;;;46.95;29.02;;;;;;;2.81;nan;100593.50;2079953;28;20234;-76
2021/03/01 02:16:14;;;;;;;45.53;28.73;;;;;;;2.83;nan;100594.09;2077825;28;20281;-75
2021/03/01 02:17:19;;;;;;;43.50;27.95;;;;;;;2.84;nan;100598.34;2080398;28;20223;-76
2021/03/01 02:18:23;;;;;;;44.70;28.77;;;;;;;2.83;nan;100591.47;2080170;28;20224;-74
2021/03/01 02:19:28;;;;;;;45.28;28.23;;;;;;;2.78;nan;100591.28;2079760;28;20740;-73
2021/03/01 02:20:30;;;;;;;47.17;29.73;;;;;;;2.83;nan;100596.75;2080425;28;20617;-74
2021/03/01 02:21:40;;;;;;;43.45;28.33;;;;;;;2.85;nan;100596.53;2080218;28;20585;-74
2021/03/01 02:22:44;;;;;;;45.92;28.50;;;;;;;2.87;nan;100594.50;2077684;28;20231;-75
2021/03/01 02:23:46;;;;;;;44.25;28.73;;;;;;;2.88;nan;100597.97;2079422;28;20230;-76
2021/03/01 02:24:50;;;;;;;44.17;28.65;;;;;;;2.88;nan;100600.59;2079460;28;20648;-75
2021/03/01 02:25:59;;;;;;;53.13;29.02;;;;;;;2.88;nan;100597.97;2079674;28;20238;-74
2021/03/01 02:27:01;;;;;;;42.03;28.15;;;;;;;2.81;nan;100585.59;2079325;28;20223;-75
2021/03/01 02:28:07;;;;;;;42.25;29.17;;;;;;;2.86;nan;100599.97;2080176;28;20226;-76
2021/03/01 02:29:11;;;;;;;41.28;26.60;;;;;;;2.92;nan;100599.16;2079097;28;20231;-73
2021/03/01 02:30:20;;;;;;;47.83;28.77;;;;;;;2.90;nan;100590.66;2079511;28;20219;-75
2021/03/01 02:31:26;;;;;;;39.03;26.92;;;;;;;2.95;nan;100599.53;2079027;28;20297;-73
2021/03/01 02:32:31;;;;;;;41.90;28.08;;;;;;;2.94;nan;100597.09;2079533;28;20227;-74
2021/03/01 02:33:37;;;;;;;43.80;26.95;;;;;;;2.92;nan;100591.25;2079818;28;20219;-74
2021/03/01 02:34:42;;;;;;;42.17;26.38;;;;;;;2.89;nan;100603.00;2079117;28;20238;-73
2021/03/01 02:35:49;;;;;;;44.55;27.23;;;;;;;2.86;nan;100599.97;2080421;28;20228;-75
2021/03/01 02:36:58;;;;;;;46.00;28.75;;;;;;;2.81;nan;100601.41;2095633;28;20225;-74
2021/03/01 02:38:04;;;;;;;44.33;26.48;;;;;;;2.82;nan;100595.13;2086140;28;20693;-75
2021/03/01 02:39:08;;;;;;;44.00;27.35;;;;;;;2.81;nan;100601.41;2079607;28;20223;-75
2021/03/01 02:40:11;;;;;;;46.05;28.30;;;;;;;2.76;nan;100590.66;2079683;28;20230;-74
2021/03/01 02:41:14;;;;;;;50.22;30.02;;;;;;;2.74;nan;100597.16;2080346;28;20281;-75
2021/03/01 02:42:20;;;;;;;47.30;29.00;;;;;;;2.83;nan;100598.56;2080127;28;20318;-74
2021/03/01 02:43:27;;;;;;;43.70;27.48;;;;;;;2.78;nan;100595.72;2078444;28;20233;-73
2021/03/01 02:44:29;;;;;;;44.40;28.42;;;;;;;2.75;nan;100588.25;2081132;28;20227;-74
2021/03/01 02:45:33;;;;;;;46.30;27.23;;;;;;;2.83;nan;100594.09;2081008;28;20598;-75
2021/03/01 02:46:40;;;;;;;44.33;27.90;;;;;;;2.79;nan;100594.75;2080862;28;20219;-75
2021/03/01 02:47:46;;;;;;;43.00;27.20;;;;;;;2.78;nan;100588.66;2080543;28;20231;-75
2021/03/01 02:48:48;;;;;;;41.85;27.92;;;;;;;2.77;nan;100594.91;2081722;28;20799;-74
2021/03/01 02:49:55;;;;;;;46.67;29.27;;;;;;;2.74;nan;100591.91;2081657;28;20226;-75
2021/03/01 02:50:59;;;;;;;43.58;29.00;;;;;;;2.73;nan;100585.81;2096935;28;20218;-75
2021/03/01 02:52:04;;;;;;;43.22;29.23;;;;;;;2.77;nan;100588.84;2088879;28;20223;-75
2021/03/01 02:53:06;;;;;;;49.78;29.08;;;;;;;2.76;nan;100585.41;2081037;28;20231;-75
2021/03/01 02:54:10;;;;;;;46.88;28.23;;;;;;;2.74;nan;100582.16;2097139;28;20222;-74
2021/03/01 02:55:14;;;;;;;43.97;27.95;;;;;;;2.73;nan;100587.66;2096499;28;20229;-74
2021/03/01 02:56:18;;;;;;;45.33;27.83;;;;;;;2.61;nan;100569.03;2081592;28;20219;-75
2021/03/01 02:57:25;;;;;;;45.17;29.00;;;;;;;2.77;nan;100584.38;2081901;28;20564;-75
2021/03/01 02:58:31;;;;;;;42.40;27.13;;;;;;;2.74;nan;100589.25;2081295;28;20238;-75
2021/03/01 02:59:35;;;;;;;42.05;26.48;;;;;;;2.74;nan;100584.81;2081978;28;20306;-75
2021/03/01 03:00:41;;;;;;;40.22;26.02;;;;;;;2.78;nan;100582.56;2079169;28;20231;-74
2021/03/01 03:01:46;;;;;;;41.15;27.50;;;;;;;2.84;nan;100587.81;2097392;28;20248;-76
2021/03/01 03:02:50;;;;;;;44.35;28.42;;;;;;;2.77;nan;100591.47;2096552;28;20222;-75
2021/03/01 03:03:55;;;;;;;41.63;28.98;;;;;;;2.90;nan;100601.19;2080712;28;20223;-75
2021/03/01 03:04:59;;;;;;;51.63;29.95;;;;;;;2.78;nan;100586.03;2080625;28;20227;-75
2021/03/01 03:06:03;;;;;;;47.40;29.05;;;;;;;2.74;nan;100597.97;2080806;28;20584;-75
2021/03/01 03:07:07;;;;;;;48.50;31.08;;;;;;;2.75;nan;100588.25;2081788;28;20231;-75
2021/03/01 03:08:12;;;;;;;47.63;29.67;;;;;;;2.71;nan;100595.75;2081221;28;20222;-74
2021/03/01 03:09:16;;;;;;;44.17;29.73;;;;;;;2.72;nan;100594.75;2080673;28;20294;-75
2021/03/01 03:10:21;;;;;;;51.17;28.50;;;;;;;2.74;nan;100597.97;2081210;28;20223;-75
2021/03/01 03:11:27;;;;;;;51.42;28.35;;;;;;;2.79;nan;100597.38;2080535;28;20365;-74
2021/03/01 03:12:29;;;;;;;49.75;29.23;;;;;;;2.71;nan;100595.75;2081577;28;20246;-74
2021/03/01 03:13:35;;;;;;;46.25;28.42;;;;;;;2.77;nan;100602.00;2097178;28;20680;-74
2021/03/01 03:14:40;;;;;;;49.40;30.50;;;;;;;2.72;nan;100597.38;2095207;28;20300;-74
2021/03/01 03:15:46;;;;;;;45.35;28.50;;;;;;;2.73;nan;100600.81;2097221;28;20233;-74
2021/03/01 03:16:50;;;;;;;44.85;29.05;;;;;;;2.74;nan;100608.50;2088198;28;20334;-74
2021/03/01 03:17:56;;;;;;;46.42;28.98;;;;;;;2.81;nan;100604.03;2080882;28;20274;-75
2021/03/01 03:18:59;;;;;;;48.28;29.45;;;;;;;2.80;nan;100602.44;2081116;28;20235;-74
2021/03/01 03:20:02;;;;;;;47.40;28.95;;;;;;;2.83;nan;100595.94;2081539;28;20234;-75
2021/03/01 03:21:04;;;;;;;50.63;29.35;;;;;;;2.79;nan;100594.75;2080756;28;20223;-74
2021/03/01 03:22:10;;;;;;;45.58;29.20;;;;;;;2.76;nan;100595.94;2080699;28;20223;-74
2021/03/01 03:23:12;;;;;;;46.97;30.33;;;;;;;2.79;nan;100606.09;2080604;28;20223;-74
2021/03/01 03:24:17;;;;;;;43.60;29.08;;;;;;;2.74;nan;100597.97;2081388;28;20234;-74
2021/03/01 03:25:20;;;;;;;52.40;29.15;;;;;;;2.80;nan;100602.44;2081759;28;20227;-75
2021/03/01 03:26:25;;;;;;;52.72;30.58;;;;;;;2.83;nan;100607.28;2080222;28;20265;-74
2021/03/01 03:27:27;;;;;;;50.00;30.23;;;;;;;2.81;nan;100603.25;2080720;28;20229;-74
2021/03/01 03:28:31;;;;;;;46.30;29.67;;;;;;;2.76;nan;100601.22;2081766;28;20671;-74
2021/03/01 03:29:34;;;;;;;48.47;30.42;;;;;;;2.76;nan;100595.13;2081364;28;20585;-75
2021/03/01 03:30:40;;;;;;;48.28;29.27;;;;;;;2.83;nan;100606.47;2081446;28;20219;-75
2021/03/01 03:31:43;;;;;;;46.22;29.63;;;;;;;2.78;nan;100593.94;2080251;28;20397;-74
2021/03/01 03:32:50;;;;;;;51.00;29.35;;;;;;;2.86;nan;100607.88;2089365;28;20273;-75
2021/03/01 03:33:54;;;;;;;49.78;31.17;;;;;;;2.80;nan;100605.06;2096714;28;20222;-74
2021/03/01 03:34:59;;;;;;;48.42;30.40;;;;;;;2.85;nan;100604.44;2080958;28;20226;-74
2021/03/01 03:36:04;;;;;;;49.67;29.92;;;;;;;2.77;nan;100597.56;2081352;28;20712;-75
2021/03/01 03:37:12;;;;;;;53.70;30.15;;;;;;;2.79;nan;100606.09;2080745;28;20226;-74
2021/03/01 03:38:22;;;;;;;48.45;31.75;;;;;;;2.82;nan;100616.19;2080162;28;20299;-74
2021/03/01 03:39:27;;;;;;;51.65;31.20;;;;;;;2.75;nan;100604.88;2080334;28;20235;-74
2021/03/01 03:40:31;;;;;;;52.05;30.85;;;;;;;2.77;nan;100602.00;2081288;28;20222;-74
2021/03/01 03:41:37;;;;;;;53.80;31.10;;;;;;;2.74;nan;100602.44;2081271;28;20231;-74
2021/03/01 03:42:40;;;;;;;48.53;30.40;;;;;;;2.71;nan;100603.66;2078900;28;20227;-74
2021/03/01 03:43:45;;;;;;;48.45;29.60;;;;;;;2.68;nan;100597.97;2081281;28;20223;-74
2021/03/01 03:44:50;;;;;;;52.17;31.45;;;;;;;2.71;nan;100603.66;2081276;28;20302;-74
2021/03/01 03:45:56;;;;;;;53.78;31.77;;;;;;;2.72;nan;100610.56;2096919;28;20218;-74
2021/03/01 03:46:59;;;;;;;52.50;31.38;;;;;;;2.82;nan;100612.75;2095250;28;20233;-74
2021/03/01 03:48:04;;;;;;;52.33;30.75;;;;;;;2.82;nan;100605.66;2081295;28;20224;-74
2021/03/01 03:49:09;;;;;;;50.83;30.77;;;;;;;2.77;nan;100612.56;2081352;28;20234;-75
2021/03/01 03:50:14;;;;;;;49.67;29.98;;;;;;;2.73;nan;100598.19;2080952;28;20671;-74
2021/03/01 03:51:19;;;;;;;49.47;31.23;;;;;;;2.72;nan;100610.56;2081190;28;20277;-74
2021/03/01 03:52:27;;;;;;;54.17;32.00;;;;;;;2.74;nan;100605.88;2081466;28;20232;-75
2021/03/01 03:53:32;;;;;;;52.38;31.88;;;;;;;2.71;nan;100614.22;2096617;28;20226;-76
2021/03/01 03:54:38;;;;;;;51.20;31.63;;;;;;;2.74;nan;100605.06;2095997;28;20240;-76
2021/03/01 03:55:43;;;;;;;51.08;30.50;;;;;;;2.71;nan;100608.94;2077749;28;20224;-74
2021/03/01 03:56:52;;;;;;;52.15;31.70;;;;;;;2.74;nan;100611.16;2080431;28;20243;-73
2021/03/01 03:57:56;;;;;;;48.83;30.60;;;;;;;2.76;nan;100611.75;2079806;28;20231;-75
2021/03/01 03:59:03;;;;;;;52.08;31.40;;;;;;;2.75;nan;100609.31;2080472;28;20231;-75
2021/03/01 04:00:07;;;;;;;56.50;30.85;;;;;;;2.79;nan;100611.34;2081023;28;20223;-76
2021/03/01 04:01:14;;;;;;;51.80;30.83;;;;;;;2.78;nan;100607.09;2079860;28;20250;-75
2021/03/01 04:02:19;;;;;;;50.10;31.13;;;;;;;2.70;nan;100602.06;2080529;28;20220;-76
2021/03/01 04:03:24;;;;;;;49.60;30.08;;;;;;;2.74;nan;100615.63;2072176;28;20587;-75
2021/03/01 04:04:28;;;;;;;54.78;31.27;;;;;;;2.76;nan;100613.56;2080179;28;20646;-75
2021/03/01 04:05:30;;;;;;;51.88;30.77;;;;;;;2.73;nan;100612.16;2097073;28;20308;-75
2021/03/01 04:06:38;;;;;;;48.83;30.23;;;;;;;2.74;nan;100607.72;2096598;28;20328;-76
2021/03/01 04:07:45;;;;;;;49.42;31.88;;;;;;;2.75;nan;100618.03;2078816;28;20239;-75
2021/03/01 04:08:49;;;;;;;52.88;31.15;;;;;;;2.75;nan;100610.13;2080262;28;20713;-75
2021/03/01 04:09:53;;;;;;;61.05;32.53;;;;;;;2.66;nan;100608.72;2080418;28;20219;-75
2021/03/01 04:10:59;;;;;;;52.90;30.30;;;;;;;2.74;nan;100618.25;2081019;28;20260;-75
2021/03/01 04:12:04;;;;;;;52.78;30.98;;;;;;;2.70;nan;100611.78;2096848;28;20229;-75
2021/03/01 04:13:08;;;;;;;49.08;31.40;;;;;;;2.69;nan;100618.84;2088124;28;20218;-75
2021/03/01 04:14:13;;;;;;;53.65;31.30;;;;;;;2.69;nan;100620.69;2072647;28;20231;-75
2021/03/01 04:15:18;;;;;;;52.65;31.67;;;;;;;2.68;nan;100619.88;2080570;28;20226;-75
2021/03/01 04:16:23;;;;;;;50.00;31.65;;;;;;;2.66;nan;100610.56;2081092;28;20227;-76
2021/03/01 04:17:27;;;;;;;49.92;30.58;;;;;;;2.69;nan;100616.22;2079769;28;20239;-75
2021/03/01 04:18:37;;;;;;;54.97;32.47;;;;;;;2.66;nan;100614.00;2080445;28;20231;-75
2021/03/01 04:19:40;;;;;;;51.95;32.22;;;;;;;2.68;nan;100617.25;2078650;28;20227;-75
2021/03/01 04:20:47;;;;;;;55.65;33.00;;;;;;;2.69;nan;100616.22;2081276;28;20235;-75
2021/03/01 04:21:52;;;;;;;57.78;33.80;;;;;;;2.76;nan;100618.84;2080566;28;20690;-76
2021/03/01 04:22:58;;;;;;;54.20;33.05;;;;;;;2.77;nan;100626.53;2079838;28;20262;-75
2021/03/01 04:24:03;;;;;;;57.90;34.20;;;;;;;2.73;nan;100620.06;2080315;28;20248;-75
2021/03/01 04:25:08;;;;;;;57.13;33.58;;;;;;;2.74;nan;100620.88;2081089;28;20219;-75
2021/03/01 04:26:12;;;;;;;57.53;33.42;;;;;;;2.74;nan;100618.25;2078683;28;20720;-75
2021/03/01 04:27:15;;;;;;;53.13;32.65;;;;;;;2.70;nan;100622.31;2080971;28;20701;-76
2021/03/01 04:28:19;;;;;;;57.92;33.10;;;;;;;2.73;nan;100622.72;2080227;28;20314;-76
2021/03/01 04:29:25;;;;;;;60.10;32.28;;;;;;;2.74;nan;100623.53;2080244;28;20713;-76
2021/03/01 04:30:28;;;;;;;57.30;33.08;;;;;;;2.77;nan;100618.63;2079750;28;20302;-75
2021/03/01 04:31:33;;;;;;;50.97;32.35;;;;;;;2.72;nan;100625.56;2080508;28;20307;-75
2021/03/01 04:32:38;;;;;;;54.97;33.00;;;;;;;2.67;nan;100618.25;2080915;28;20562;-75
2021/03/01 04:33:42;;;;;;;58.08;33.25;;;;;;;2.62;nan;100612.81;2080571;28;20231;-75
2021/03/01 04:34:46;;;;;;;58.58;32.33;;;;;;;2.62;nan;100606.72;2080506;28;20263;-75
2021/03/01 04:35:49;;;;;;;50.75;32.80;;;;;;;2.65;nan;100614.22;2080513;28;21526;-75
2021/03/01 04:36:56;;;;;;;56.95;32.90;;;;;;;2.68;nan;100613.78;2080147;28;20223;-75
2021/03/01 04:38:00;;;;;;;58.58;34.05;;;;;;;2.66;nan;100616.63;2080459;28;20285;-75
2021/03/01 04:39:05;;;;;;;55.13;32.63;;;;;;;2.63;nan;100614.44;2081024;28;20219;-74
2021/03/01 04:40:10;;;;;;;60.47;34.83;;;;;;;2.61;nan;100619.09;2080904;28;20230;-75
2021/03/01 04:41:14;;;;;;;58.13;35.30;;;;;;;2.63;nan;100616.25;2080586;28;20227;-76
2021/03/01 04:42:17;;;;;;;57.45;34.55;;;;;;;2.60;nan;100614.00;2080352;28;20224;-75
2021/03/01 04:43:25;;;;;;;57.70;34.90;;;;;;;2.64;nan;100613.41;2080150;28;20366;-75
2021/03/01 04:44:27;;;;;;;56.15;35.08;;;;;;;2.63;nan;100617.06;2080401;28;20630;-75
2021/03/01 04:45:31;;;;;;;58.30;34.75;;;;;;;2.59;nan;100621.09;2080804;28;20219;-75
2021/03/01 04:46:37;;;;;;;61.75;34.45;;;;;;;2.65;nan;100617.66;2080877;28;20309;-75
2021/03/01 04:47:42;;;;;;;60.65;34.05;;;;;;;2.66;nan;100615.84;2079877;28;20243;-75
2021/03/01 04:48:46;;;;;;;56.88;34.92;;;;;;;2.69;nan;100618.84;2072660;28;20220;-75
2021/03/01 04:49:49;;;;;;;60.72;34.75;;;;;;;2.68;nan;100619.88;2080271;28;20222;-75
2021/03/01 04:50:55;;;;;;;53.20;33.63;;;;;;;2.70;nan;100617.06;2080747;28;20373;-76
2021/03/01 04:51:59;;;;;;;59.75;35.17;;;;;;;2.71;nan;100610.78;2079629;28;21339;-75
2021/03/01 04:53:04;;;;;;;60.80;34.63;;;;;;;2.72;nan;100620.28;2080198;28;20223;-75
2021/03/01 04:54:07;;;;;;;58.35;31.65;;;;;;;2.69;nan;100624.13;2079916;28;20242;-75
2021/03/01 04:55:12;;;;;;;57.00;31.75;;;;;;;2.71;nan;100619.47;2079606;28;20306;-75
2021/03/01 04:56:14;;;;;;;57.45;31.25;;;;;;;2.74;nan;100626.97;2080107;28;20313;-75
2021/03/01 04:57:20;;;;;;;57.42;32.15;;;;;;;2.66;nan;100614.00;2096428;28;20240;-75
2021/03/01 04:58:23;;;;;;;60.15;31.75;;;;;;;2.69;nan;100621.50;2086942;28;20237;-75
2021/03/01 04:59:29;;;;;;;58.33;33.42;;;;;;;2.70;nan;100623.13;2079578;28;20231;-75
2021/03/01 05:00:32;;;;;;;59.63;32.58;;;;;;;2.69;nan;100629.41;2080877;28;20219;-75
2021/03/01 05:01:37;;;;;;;57.08;33.10;;;;;;;2.68;nan;100633.03;2080257;28;20223;-75
2021/03/01 05:02:40;;;;;;;56.65;33.40;;;;;;;2.66;nan;100631.63;2072253;28;20232;-75
2021/03/01 05:03:45;;;;;;;61.42;34.78;;;;;;;2.57;nan;100615.25;2079906;28;20223;-75
2021/03/01 05:04:47;;;;;;;66.35;34.67;;;;;;;2.67;nan;100626.16;2080779;28;20666;-75